createdAt,value
2023-04-12T00:00:19.183Z,25.15
2023-04-12T00:01:19.247Z,25.15
2023-04-12T00:02:19.367Z,25.14
2023-04-12T00:03:19.402Z,25.13
2023-04-12T00:04:19.445Z,25.14
2023-04-12T00:05:19.389Z,25.17
2023-04-12T00:06:19.366Z,25.15
2023-04-12T00:07:19.397Z,25.13
2023-04-12T00:08:19.436Z,25.13
2023-04-12T00:09:19.458Z,25.13
2023-04-12T00:10:19.504Z,25.13
2023-04-12T00:11:19.566Z,25.14
2023-04-12T00:12:19.567Z,25.13
2023-04-12T00:13:19.642Z,25.13
2023-04-12T00:14:19.654Z,25.10
2023-04-12T00:15:19.667Z,25.13
2023-04-12T00:16:19.815Z,25.14
2023-04-12T00:17:19.878Z,25.13
2023-04-12T00:18:19.836Z,25.11
2023-04-12T00:19:19.821Z,25.10
2023-04-12T00:20:19.900Z,25.11
2023-04-12T00:21:19.967Z,25.11
2023-04-12T00:22:19.943Z,25.11
2023-04-12T00:23:19.970Z,25.11
2023-04-12T00:24:19.993Z,25.10
2023-04-12T00:25:20.062Z,25.11
2023-04-12T00:26:20.092Z,25.10
2023-04-12T00:27:20.112Z,25.11
2023-04-12T00:28:20.160Z,25.13
2023-04-12T00:29:20.186Z,25.13
2023-04-12T00:30:20.276Z,25.10
2023-04-12T00:31:20.346Z,25.10
2023-04-12T00:32:20.318Z,25.10
2023-04-12T00:33:20.368Z,25.10
2023-04-12T00:34:20.418Z,25.10
2023-04-12T00:35:20.426Z,25.10
2023-04-12T00:36:20.552Z,25.10
2023-04-12T00:37:20.501Z,25.11
2023-04-12T00:38:20.553Z,25.10
2023-04-12T00:39:20.586Z,25.10
2023-04-12T00:40:20.639Z,25.10
2023-04-12T00:41:20.650Z,25.11
2023-04-12T00:42:20.729Z,25.07
2023-04-12T00:43:20.763Z,25.10
2023-04-12T00:44:20.779Z,25.09
2023-04-12T00:45:20.870Z,25.09
2023-04-12T00:46:20.990Z,25.07
2023-04-12T00:47:20.959Z,25.11
2023-04-12T00:48:20.981Z,25.07
2023-04-12T00:49:21.000Z,25.07
2023-04-12T00:50:21.028Z,25.10
2023-04-12T00:51:21.105Z,25.09
2023-04-12T00:52:21.104Z,25.07
2023-04-12T00:53:21.157Z,25.10
2023-04-12T00:54:21.181Z,25.07
2023-04-12T00:55:21.199Z,25.09
2023-04-12T00:56:21.276Z,25.07
2023-04-12T00:57:21.274Z,25.09
2023-04-12T00:58:21.315Z,25.10
2023-04-12T00:59:21.394Z,25.07
2023-04-12T01:00:21.420Z,25.07
2023-04-12T01:01:21.478Z,25.06
2023-04-12T01:02:21.670Z,25.09
2023-04-12T01:03:21.610Z,25.09
2023-04-12T01:04:21.581Z,25.07
2023-04-12T01:05:21.603Z,25.07
2023-04-12T01:06:21.643Z,25.10
2023-04-12T01:07:21.699Z,25.07
2023-04-12T01:08:21.724Z,25.07
2023-04-12T01:09:21.757Z,25.07
2023-04-12T01:10:21.799Z,25.07
2023-04-12T01:11:21.844Z,25.09
2023-04-12T01:12:21.895Z,25.10
2023-04-12T01:13:21.925Z,25.06
2023-04-12T01:14:21.985Z,25.06
2023-04-12T01:15:22.007Z,25.09
2023-04-12T01:16:22.104Z,25.07
2023-04-12T01:17:22.144Z,25.07
2023-04-12T01:18:22.164Z,25.09
2023-04-12T01:19:22.169Z,25.07
2023-04-12T01:20:22.211Z,25.09
2023-04-12T01:21:22.248Z,25.07
2023-04-12T01:22:22.290Z,25.09
2023-04-12T01:23:22.325Z,25.06
2023-04-12T01:24:22.335Z,25.06
2023-04-12T01:25:22.404Z,25.10
2023-04-12T01:26:22.526Z,25.07
2023-04-12T01:27:22.475Z,25.07
2023-04-12T01:28:22.486Z,25.09
2023-04-12T01:29:22.549Z,25.09
2023-04-12T01:30:22.605Z,25.09
2023-04-12T01:31:22.634Z,25.09
2023-04-12T01:32:22.670Z,25.04
2023-04-12T01:33:22.702Z,25.06
2023-04-12T01:34:22.769Z,25.07
2023-04-12T01:35:22.822Z,25.06
2023-04-12T01:36:22.835Z,25.03
2023-04-12T01:37:22.912Z,25.06
2023-04-12T01:38:22.939Z,25.06
2023-04-12T01:39:22.957Z,25.03
2023-04-12T01:40:22.986Z,25.03
2023-04-12T01:41:23.025Z,25.06
2023-04-12T01:42:23.062Z,25.07
2023-04-12T01:43:23.115Z,25.06
2023-04-12T01:44:23.129Z,25.03
2023-04-12T01:45:23.184Z,25.07
2023-04-12T01:46:23.266Z,25.04
2023-04-12T01:47:23.299Z,25.03
2023-04-12T01:48:23.321Z,25.03
2023-04-12T01:49:23.352Z,25.03
2023-04-12T01:50:23.375Z,25.03
2023-04-12T01:51:23.452Z,25.04
2023-04-12T01:52:23.461Z,25.04
2023-04-12T01:53:23.491Z,25.01
2023-04-12T01:54:23.567Z,25.03
2023-04-12T01:55:23.605Z,25.01
2023-04-12T01:56:23.654Z,25.01
2023-04-12T01:57:23.692Z,25.01
2023-04-12T01:58:23.730Z,25.01
2023-04-12T01:59:23.760Z,25.03
2023-04-12T02:00:23.806Z,25.01
2023-04-12T02:01:23.913Z,25.03
2023-04-12T02:02:23.980Z,25.04
2023-04-12T02:03:24.064Z,25.01
2023-04-12T02:04:23.981Z,25.04
2023-04-12T02:05:24.050Z,25.04
2023-04-12T02:06:24.092Z,25.03
2023-04-12T02:07:24.137Z,25.01
2023-04-12T02:08:24.179Z,25.01
2023-04-12T02:09:24.213Z,25.01
2023-04-12T02:10:24.252Z,25.01
2023-04-12T02:11:24.311Z,25.00
2023-04-12T02:12:24.321Z,25.04
2023-04-12T02:13:24.374Z,25.01
2023-04-12T02:14:24.443Z,25.03
2023-04-12T02:15:24.511Z,25.01
2023-04-12T02:16:24.556Z,25.01
2023-04-12T02:17:24.555Z,25.03
2023-04-12T02:18:24.578Z,25.00
2023-04-12T02:19:24.611Z,25.01
2023-04-12T02:20:24.663Z,25.03
2023-04-12T02:21:24.749Z,25.03
2023-04-12T02:22:24.800Z,25.01
2023-04-12T02:23:24.791Z,25.01
2023-04-12T02:24:24.839Z,25.01
2023-04-12T02:25:24.891Z,25.03
2023-04-12T02:26:24.947Z,25.01
2023-04-12T02:27:24.968Z,25.03
2023-04-12T02:28:25.018Z,25.00
2023-04-12T02:29:25.026Z,25.03
2023-04-12T02:30:25.104Z,24.98
2023-04-12T02:31:25.146Z,25.00
2023-04-12T02:32:25.213Z,25.01
2023-04-12T02:33:25.203Z,24.98
2023-04-12T02:34:25.260Z,25.01
2023-04-12T02:35:25.316Z,25.01
2023-04-12T02:36:25.391Z,25.01
2023-04-12T02:37:25.394Z,25.01
2023-04-12T02:38:25.441Z,25.00
2023-04-12T02:39:25.472Z,25.03
2023-04-12T02:40:25.506Z,25.00
2023-04-12T02:41:25.560Z,25.01
2023-04-12T02:42:25.625Z,24.97
2023-04-12T02:43:25.634Z,25.01
2023-04-12T02:44:25.677Z,24.98
2023-04-12T02:45:25.729Z,25.01
2023-04-12T02:46:25.886Z,24.97
2023-04-12T02:47:25.861Z,25.00
2023-04-12T02:48:25.874Z,25.01
2023-04-12T02:49:25.894Z,25.01
2023-04-12T02:50:25.964Z,25.00
2023-04-12T02:51:26.005Z,25.01
2023-04-12T02:52:26.032Z,24.97
2023-04-12T02:53:26.074Z,25.00
2023-04-12T02:54:26.126Z,25.01
2023-04-12T02:55:26.164Z,24.98
2023-04-12T02:56:26.239Z,25.00
2023-04-12T02:57:26.274Z,25.00
2023-04-12T02:58:26.309Z,24.97
2023-04-12T02:59:26.341Z,24.97
2023-04-12T03:00:26.403Z,25.00
2023-04-12T03:01:26.533Z,25.00
2023-04-12T03:02:26.693Z,24.98
2023-04-12T03:03:26.600Z,24.98
2023-04-12T03:04:26.702Z,24.95
2023-04-12T03:05:26.623Z,24.98
2023-04-12T03:06:26.667Z,24.98
2023-04-12T03:07:26.712Z,24.98
2023-04-12T03:08:26.780Z,24.98
2023-04-12T03:09:26.797Z,24.97
2023-04-12T03:10:26.879Z,24.98
2023-04-12T03:11:26.904Z,24.97
2023-04-12T03:12:26.961Z,24.98
2023-04-12T03:13:27.001Z,24.98
2023-04-12T03:14:27.984Z,24.98
2023-04-12T03:15:27.153Z,24.95
2023-04-12T03:16:27.133Z,24.97
2023-04-12T03:17:27.202Z,24.95
2023-04-12T03:18:27.216Z,24.97
2023-04-12T03:19:27.240Z,24.97
2023-04-12T03:20:27.310Z,24.97
2023-04-12T03:21:27.343Z,24.97
2023-04-12T03:22:27.397Z,24.97
2023-04-12T03:23:27.432Z,24.97
2023-04-12T03:24:27.496Z,24.97
2023-04-12T03:25:27.552Z,24.98
2023-04-12T03:26:27.655Z,24.95
2023-04-12T03:27:27.642Z,24.97
2023-04-12T03:28:27.658Z,24.95
2023-04-12T03:29:27.727Z,24.98
2023-04-12T03:30:27.787Z,24.97
2023-04-12T03:31:27.847Z,24.97
2023-04-12T03:32:27.877Z,24.97
2023-04-12T03:33:27.877Z,24.94
2023-04-12T03:34:27.960Z,24.98
2023-04-12T03:35:27.988Z,24.94
2023-04-12T03:36:28.025Z,24.95
2023-04-12T03:37:28.176Z,24.98
2023-04-12T03:38:28.085Z,24.97
2023-04-12T03:39:28.141Z,24.95
2023-04-12T03:40:28.183Z,24.95
2023-04-12T03:41:28.267Z,24.97
2023-04-12T03:42:33.094Z,24.98
2023-04-12T03:43:29.315Z,24.98
2023-04-12T03:44:28.276Z,24.97
2023-04-12T03:45:28.256Z,24.97
2023-04-12T03:46:28.294Z,24.95
2023-04-12T03:47:28.296Z,24.98
2023-04-12T03:48:28.259Z,24.98
2023-04-12T03:49:28.235Z,24.97
2023-04-12T03:50:28.266Z,24.95
2023-04-12T03:51:28.248Z,24.95
2023-04-12T03:52:28.250Z,24.97
2023-04-12T03:53:28.205Z,24.95
2023-04-12T03:54:28.225Z,24.97
2023-04-12T03:55:28.217Z,24.97
2023-04-12T03:56:28.313Z,24.95
2023-04-12T03:57:28.343Z,24.97
2023-04-12T03:58:28.380Z,24.97
2023-04-12T03:59:28.456Z,24.97
2023-04-12T04:00:28.491Z,24.94
2023-04-12T04:01:28.530Z,24.95
2023-04-12T04:02:28.722Z,25.00
2023-04-12T04:03:28.727Z,24.94
2023-04-12T04:04:28.908Z,24.98
2023-04-12T04:05:28.742Z,24.94
2023-04-12T04:06:28.795Z,24.97
2023-04-12T04:07:28.817Z,24.98
2023-04-12T04:08:28.858Z,24.95
2023-04-12T04:09:28.905Z,24.95
2023-04-12T04:10:28.973Z,24.97
2023-04-12T04:11:29.015Z,24.98
2023-04-12T04:12:29.063Z,24.97
2023-04-12T04:13:29.089Z,24.94
2023-04-12T04:14:29.157Z,24.95
2023-04-12T04:15:29.229Z,24.97
2023-04-12T04:16:29.333Z,24.97
2023-04-12T04:17:29.361Z,24.95
2023-04-12T04:18:29.357Z,24.94
2023-04-12T04:19:29.389Z,24.95
2023-04-12T04:20:29.438Z,24.97
2023-04-12T04:21:29.493Z,24.98
2023-04-12T04:22:29.548Z,24.98
2023-04-12T04:23:29.599Z,24.97
2023-04-12T04:24:29.631Z,25.00
2023-04-12T04:25:29.758Z,24.95
2023-04-12T04:26:29.741Z,24.97
2023-04-12T04:27:29.748Z,24.97
2023-04-12T04:28:29.814Z,24.95
2023-04-12T04:29:29.885Z,24.97
2023-04-12T04:30:29.911Z,24.98
2023-04-12T04:31:29.976Z,24.98
2023-04-12T04:32:30.009Z,24.95
2023-04-12T04:33:30.055Z,24.97
2023-04-12T04:34:30.093Z,24.95
2023-04-12T04:35:30.198Z,24.98
2023-04-12T04:36:30.197Z,24.98
2023-04-12T04:37:30.235Z,24.94
2023-04-12T04:38:30.280Z,24.97
2023-04-12T04:39:30.341Z,24.94
2023-04-12T04:40:30.355Z,24.93
2023-04-12T04:41:30.425Z,24.97
2023-04-12T04:42:30.486Z,24.97
2023-04-12T04:43:30.521Z,25.00
2023-04-12T04:44:30.550Z,25.00
2023-04-12T04:45:30.762Z,24.98
2023-04-12T04:46:30.671Z,25.00
2023-04-12T04:47:30.754Z,25.01
2023-04-12T04:48:30.750Z,25.01
2023-04-12T04:49:30.802Z,25.03
2023-04-12T04:50:30.840Z,25.04
2023-04-12T04:51:30.891Z,25.01
2023-04-12T04:52:30.933Z,25.01
2023-04-12T04:53:30.979Z,25.04
2023-04-12T04:54:31.044Z,25.01
2023-04-12T04:55:31.075Z,25.04
2023-04-12T04:56:31.149Z,25.03
2023-04-12T04:57:31.154Z,25.04
2023-04-12T04:58:31.173Z,25.03
2023-04-12T04:59:31.200Z,25.03
2023-04-12T05:00:31.276Z,25.07
2023-04-12T05:01:31.359Z,25.06
2023-04-12T05:02:31.485Z,25.06
2023-04-12T05:03:31.539Z,25.06
2023-04-12T05:04:31.495Z,25.04
2023-04-12T05:05:31.474Z,25.04
2023-04-12T05:06:31.478Z,25.07
2023-04-12T05:07:31.540Z,25.07
2023-04-12T05:08:31.566Z,25.09
2023-04-12T05:09:31.621Z,25.10
2023-04-12T05:10:31.644Z,25.09
2023-04-12T05:11:31.698Z,25.09
2023-04-12T05:12:31.734Z,25.11
2023-04-12T05:13:31.771Z,25.09
2023-04-12T05:14:45.535Z,25.09
2023-04-12T05:15:32.792Z,25.09
2023-04-12T05:16:31.874Z,25.09
2023-04-12T05:17:31.799Z,25.10
2023-04-12T05:18:31.788Z,25.09
2023-04-12T05:19:31.791Z,25.11
2023-04-12T05:20:31.759Z,25.09
2023-04-12T05:21:31.759Z,25.11
2023-04-12T05:22:31.756Z,25.10
2023-04-12T05:23:31.748Z,25.13
2023-04-12T05:24:31.719Z,25.11
2023-04-12T05:25:31.734Z,25.13
2023-04-12T05:26:31.730Z,25.11
2023-04-12T05:27:31.725Z,25.14
2023-04-12T05:28:31.710Z,25.11
2023-04-12T05:29:31.734Z,25.13
2023-04-12T05:30:31.811Z,25.11
2023-04-12T05:31:31.794Z,25.11
2023-04-12T05:32:31.852Z,25.13
2023-04-12T05:33:33.445Z,25.14
2023-04-12T05:34:31.891Z,25.13
2023-04-12T05:35:31.918Z,25.13
2023-04-12T05:36:31.946Z,25.13
2023-04-12T05:37:31.961Z,25.13
2023-04-12T05:38:32.020Z,25.14
2023-04-12T05:39:32.028Z,25.15
2023-04-12T05:40:32.073Z,25.14
2023-04-12T05:41:32.122Z,25.14
2023-04-12T05:42:32.132Z,25.15
2023-04-12T05:43:32.157Z,25.14
2023-04-12T05:44:32.164Z,25.17
2023-04-12T05:45:32.214Z,25.17
2023-04-12T05:46:32.211Z,25.18
2023-04-12T05:47:32.251Z,25.20
2023-04-12T05:48:32.295Z,25.14
2023-04-12T05:49:32.320Z,25.21
2023-04-12T05:50:32.319Z,25.21
2023-04-12T05:51:41.070Z,25.24
2023-04-12T05:52:33.328Z,25.24
2023-04-12T05:53:32.321Z,25.27
2023-04-12T05:54:32.315Z,25.31
2023-04-12T05:55:32.329Z,25.31
2023-04-12T05:56:32.627Z,25.32
2023-04-12T05:57:32.275Z,25.37
2023-04-12T05:58:32.276Z,25.35
2023-04-12T05:59:32.265Z,25.42
2023-04-12T06:00:32.296Z,25.44
2023-04-12T06:01:32.540Z,25.48
2023-04-12T06:02:32.319Z,25.50
2023-04-12T06:03:32.332Z,25.50
2023-04-12T06:04:48.699Z,25.55
2023-04-12T06:05:33.314Z,25.59
2023-04-12T06:06:32.242Z,25.62
2023-04-12T06:07:32.230Z,25.64
2023-04-12T06:08:33.002Z,25.65
2023-04-12T06:09:32.229Z,25.59
2023-04-12T06:10:32.180Z,25.65
2023-04-12T06:11:32.178Z,25.69
2023-04-12T06:12:32.197Z,25.72
2023-04-12T06:13:32.182Z,25.75
2023-04-12T06:14:32.263Z,25.76
2023-04-12T06:15:32.316Z,25.79
2023-04-12T06:16:32.483Z,25.82
2023-04-12T06:17:32.470Z,25.80
2023-04-12T06:18:32.492Z,25.85
2023-04-12T06:19:32.557Z,25.87
2023-04-12T06:20:32.642Z,25.86
2023-04-12T06:21:32.646Z,25.86
2023-04-12T06:22:32.723Z,25.89
2023-04-12T06:23:32.753Z,25.92
2023-04-12T06:24:32.847Z,25.95
2023-04-12T06:25:32.837Z,25.96
2023-04-12T06:26:39.769Z,25.99
2023-04-12T06:27:33.888Z,26.00
2023-04-12T06:28:32.884Z,25.99
2023-04-12T06:29:32.905Z,26.03
2023-04-12T06:30:32.873Z,26.03
2023-04-12T06:31:32.890Z,26.04
2023-04-12T06:32:32.950Z,26.06
2023-04-12T06:33:32.865Z,26.08
2023-04-12T06:34:34.425Z,26.12
2023-04-12T06:35:32.869Z,26.14
2023-04-12T06:36:32.843Z,26.12
2023-04-12T06:37:33.120Z,26.14
2023-04-12T06:38:32.831Z,26.16
2023-04-12T06:39:32.818Z,26.13
2023-04-12T06:40:32.838Z,26.19
2023-04-12T06:41:32.856Z,26.23
2023-04-12T06:42:32.881Z,26.21
2023-04-12T06:43:32.927Z,26.24
2023-04-12T06:44:32.937Z,26.23
2023-04-12T06:45:32.981Z,26.24
2023-04-12T06:46:33.003Z,26.26
2023-04-12T06:47:33.162Z,26.30
2023-04-12T06:48:33.044Z,26.34
2023-04-12T06:49:33.054Z,26.34
2023-04-12T06:50:33.062Z,26.37
2023-04-12T06:51:33.099Z,26.40
2023-04-12T06:52:33.564Z,26.38
2023-04-12T06:53:33.189Z,26.42
2023-04-12T06:54:33.166Z,26.42
2023-04-12T06:55:33.168Z,26.48
2023-04-12T06:56:33.223Z,26.48
2023-04-12T06:57:33.309Z,26.37
2023-04-12T06:58:33.274Z,26.23
2023-04-12T06:59:33.338Z,26.03
2023-04-12T07:00:33.387Z,25.86
2023-04-12T07:01:33.403Z,25.70
2023-04-12T07:02:33.605Z,25.52
2023-04-12T07:03:33.472Z,25.37
2023-04-12T07:04:33.433Z,25.28
2023-04-12T07:05:33.418Z,25.20
2023-04-12T07:06:33.415Z,25.11
2023-04-12T07:07:33.457Z,25.10
2023-04-12T07:08:33.452Z,25.13
2023-04-12T07:09:33.532Z,25.15
2023-04-12T07:10:33.607Z,25.17
2023-04-12T07:11:33.674Z,25.22
2023-04-12T07:12:33.675Z,25.28
2023-04-12T07:13:33.714Z,25.32
2023-04-12T07:14:33.759Z,25.39
2023-04-12T07:15:33.747Z,25.45
2023-04-12T07:16:33.746Z,25.49
2023-04-12T07:17:33.809Z,25.55
2023-04-12T07:18:33.836Z,25.62
2023-04-12T07:19:33.911Z,25.68
2023-04-12T07:20:34.008Z,25.72
2023-04-12T07:21:34.081Z,25.76
2023-04-12T07:22:34.164Z,25.77
2023-04-12T07:23:34.238Z,25.83
2023-04-12T07:24:34.422Z,25.87
2023-04-12T07:25:34.371Z,25.92
2023-04-12T07:26:34.378Z,25.96
2023-04-12T07:27:34.608Z,25.99
2023-04-12T07:28:34.512Z,26.01
2023-04-12T07:29:34.548Z,26.03
2023-04-12T07:30:34.613Z,26.06
2023-04-12T07:31:34.642Z,26.10
2023-04-12T07:32:34.708Z,26.13
2023-04-12T07:33:34.856Z,26.17
2023-04-12T07:34:34.890Z,26.16
2023-04-12T07:35:34.838Z,26.19
2023-04-12T07:36:34.831Z,26.21
2023-04-12T07:37:34.869Z,26.24
2023-04-12T07:38:34.908Z,26.26
2023-04-12T07:39:35.069Z,26.23
2023-04-12T07:40:34.988Z,26.24
2023-04-12T07:41:35.051Z,26.31
2023-04-12T07:42:35.101Z,26.34
2023-04-12T07:43:35.092Z,26.42
2023-04-12T07:44:37.928Z,26.44
2023-04-12T07:45:35.116Z,26.47
2023-04-12T07:46:35.216Z,26.48
2023-04-12T07:47:35.143Z,26.48
2023-04-12T07:48:35.065Z,26.54
2023-04-12T07:49:35.072Z,26.55
2023-04-12T07:50:35.071Z,26.55
2023-04-12T07:51:35.022Z,26.58
2023-04-12T07:52:35.022Z,26.59
2023-04-12T07:53:35.031Z,26.59
2023-04-12T07:54:35.037Z,26.61
2023-04-12T07:55:35.036Z,26.62
2023-04-12T07:56:35.023Z,26.63
2023-04-12T07:57:35.121Z,26.68
2023-04-12T07:58:35.014Z,26.67
2023-04-12T07:59:34.993Z,26.68
2023-04-12T08:00:35.019Z,26.69
2023-04-12T08:01:35.025Z,26.71
2023-04-12T08:02:35.142Z,26.69
2023-04-12T08:03:35.018Z,26.68
2023-04-12T08:04:34.981Z,26.69
2023-04-12T08:05:35.021Z,26.72
2023-04-12T08:06:34.978Z,26.74
2023-04-12T08:07:34.977Z,26.72
2023-04-12T08:08:34.933Z,26.74
2023-04-12T08:09:34.948Z,26.71
2023-04-12T08:10:34.924Z,26.75
2023-04-12T08:11:34.927Z,26.75
2023-04-12T08:12:34.921Z,26.79
2023-04-12T08:13:34.942Z,26.79
2023-04-12T08:14:34.890Z,26.77
2023-04-12T08:15:35.635Z,26.81
2023-04-12T08:16:34.865Z,26.79
2023-04-12T08:17:34.917Z,26.83
2023-04-12T08:18:34.884Z,26.83
2023-04-12T08:19:34.852Z,26.82
2023-04-12T08:20:34.850Z,26.83
2023-04-12T08:21:34.848Z,26.86
2023-04-12T08:22:34.861Z,26.85
2023-04-12T08:23:34.840Z,26.86
2023-04-12T08:24:34.874Z,26.89
2023-04-12T08:25:34.841Z,26.89
2023-04-12T08:26:34.813Z,26.90
2023-04-12T08:27:34.835Z,26.92
2023-04-12T08:28:34.834Z,26.90
2023-04-12T08:29:34.804Z,26.90
2023-04-12T08:30:34.816Z,26.90
2023-04-12T08:31:34.936Z,26.92
2023-04-12T08:32:34.826Z,26.88
2023-04-12T08:33:34.769Z,26.92
2023-04-12T08:34:34.761Z,26.93
2023-04-12T08:35:34.796Z,26.89
2023-04-12T08:36:34.777Z,26.90
2023-04-12T08:37:35.125Z,26.96
2023-04-12T08:38:44.824Z,26.96
2023-04-12T08:39:35.917Z,26.99
2023-04-12T08:40:34.738Z,27.02
2023-04-12T08:41:35.744Z,27.05
2023-04-12T08:42:34.762Z,27.05
2023-04-12T08:43:34.744Z,27.07
2023-04-12T08:44:34.761Z,27.07
2023-04-12T08:45:34.813Z,27.03
2023-04-12T08:46:34.790Z,27.09
2023-04-12T08:47:34.944Z,27.14
2023-04-12T08:48:34.801Z,27.14
2023-04-12T08:49:34.763Z,27.16
2023-04-12T08:50:34.775Z,27.14
2023-04-12T08:51:34.785Z,27.10
2023-04-12T08:52:35.098Z,27.14
2023-04-12T08:53:34.842Z,26.96
2023-04-12T08:54:34.869Z,26.74
2023-04-12T08:55:34.900Z,26.51
2023-04-12T08:56:34.912Z,26.26
2023-04-12T08:57:35.170Z,26.10
2023-04-12T08:58:35.044Z,25.99
2023-04-12T08:59:35.062Z,25.93
2023-04-12T09:00:35.119Z,25.86
2023-04-12T09:01:35.228Z,25.87
2023-04-12T09:02:35.358Z,25.87
2023-04-12T09:03:35.448Z,25.89
2023-04-12T09:04:35.258Z,25.92
2023-04-12T09:05:35.290Z,25.92
2023-04-12T09:06:35.324Z,25.99
2023-04-12T09:07:35.373Z,26.04
2023-04-12T09:08:35.443Z,26.10
2023-04-12T09:09:35.502Z,26.16
2023-04-12T09:10:35.532Z,26.20
2023-04-12T09:11:35.565Z,26.24
2023-04-12T09:12:35.641Z,26.28
2023-04-12T09:13:35.639Z,26.34
2023-04-12T09:14:35.674Z,26.37
2023-04-12T09:15:35.727Z,26.42
2023-04-12T09:16:36.002Z,26.47
2023-04-12T09:17:35.849Z,26.50
2023-04-12T09:18:35.779Z,26.52
2023-04-12T09:19:35.792Z,26.55
2023-04-12T09:20:35.873Z,26.56
2023-04-12T09:21:35.879Z,26.59
2023-04-12T09:22:36.141Z,26.63
2023-04-12T09:23:35.884Z,26.67
2023-04-12T09:24:35.919Z,26.68
2023-04-12T09:25:35.924Z,26.71
2023-04-12T09:26:35.942Z,26.74
2023-04-12T09:27:35.986Z,26.77
2023-04-12T09:28:35.951Z,26.77
2023-04-12T09:29:35.969Z,26.78
2023-04-12T09:30:36.004Z,26.78
2023-04-12T09:31:36.015Z,26.81
2023-04-12T09:32:35.990Z,26.79
2023-04-12T09:33:36.095Z,26.83
2023-04-12T09:34:36.070Z,26.85
2023-04-12T09:35:36.064Z,26.85
2023-04-12T09:36:35.990Z,26.88
2023-04-12T09:37:36.032Z,26.89
2023-04-12T09:38:36.157Z,26.92
2023-04-12T09:39:36.569Z,26.92
2023-04-12T09:40:35.979Z,26.92
2023-04-12T09:41:36.021Z,26.89
2023-04-12T09:42:36.037Z,26.89
2023-04-12T09:43:36.137Z,26.93
2023-04-12T09:44:35.999Z,26.95
2023-04-12T09:45:36.025Z,26.96
2023-04-12T09:46:36.087Z,26.99
2023-04-12T09:47:36.028Z,26.82
2023-04-12T09:48:36.064Z,26.89
2023-04-12T09:49:36.125Z,26.86
2023-04-12T09:50:36.125Z,26.85
2023-04-12T09:51:36.163Z,26.83
2023-04-12T09:52:36.247Z,26.79
2023-04-12T09:53:36.300Z,26.75
2023-04-12T09:54:36.294Z,26.72
2023-04-12T09:55:36.346Z,26.67
2023-04-12T09:56:36.454Z,26.62
2023-04-12T09:57:36.446Z,26.58
2023-04-12T09:58:36.484Z,26.54
2023-04-12T09:59:36.593Z,26.47
2023-04-12T10:00:36.589Z,26.40
2023-04-12T10:01:36.702Z,26.38
2023-04-12T10:02:37.097Z,26.34
2023-04-12T10:03:36.808Z,26.27
2023-04-12T10:04:36.794Z,26.24
2023-04-12T10:05:36.790Z,26.21
2023-04-12T10:06:36.752Z,26.17
2023-04-12T10:07:36.900Z,26.14
2023-04-12T10:08:36.966Z,26.10
2023-04-12T10:09:36.868Z,26.10
2023-04-12T10:10:36.889Z,26.06
2023-04-12T10:11:36.942Z,26.00
2023-04-12T10:12:36.950Z,25.96
2023-04-12T10:13:36.994Z,25.95
2023-04-12T10:14:37.004Z,25.92
2023-04-12T10:15:37.075Z,25.89
2023-04-12T10:16:37.144Z,25.87
2023-04-12T10:17:37.156Z,25.83
2023-04-12T10:18:37.138Z,25.83
2023-04-12T10:19:37.104Z,25.79
2023-04-12T10:20:37.160Z,25.79
2023-04-12T10:21:37.148Z,25.77
2023-04-12T10:22:37.207Z,25.75
2023-04-12T10:23:37.232Z,25.75
2023-04-12T10:24:37.247Z,25.75
2023-04-12T10:25:37.291Z,25.75
2023-04-12T10:26:37.330Z,25.75
2023-04-12T10:27:37.332Z,25.73
2023-04-12T10:28:37.339Z,25.75
2023-04-12T10:29:37.357Z,25.73
2023-04-12T10:30:37.400Z,25.70
2023-04-12T10:31:37.522Z,25.70
2023-04-12T10:32:37.566Z,25.70
2023-04-12T10:33:37.714Z,25.68
2023-04-12T10:34:37.502Z,25.68
2023-04-12T10:35:37.547Z,25.64
2023-04-12T10:36:37.577Z,25.57
2023-04-12T10:37:37.641Z,25.46
2023-04-12T10:38:37.727Z,25.45
2023-04-12T10:39:37.753Z,25.42
2023-04-12T10:40:37.829Z,25.37
2023-04-12T10:41:37.863Z,25.37
2023-04-12T10:42:37.880Z,25.37
2023-04-12T10:43:37.962Z,25.41
2023-04-12T10:44:37.951Z,25.41
2023-04-12T10:45:37.959Z,25.41
2023-04-12T10:46:38.068Z,25.45
2023-04-12T10:47:38.044Z,25.45
2023-04-12T10:48:38.078Z,25.50
2023-04-12T10:49:38.075Z,25.52
2023-04-12T10:50:38.128Z,25.53
2023-04-12T10:51:38.110Z,25.59
2023-04-12T10:52:38.115Z,25.59
2023-04-12T10:53:38.128Z,25.62
2023-04-12T10:54:38.151Z,25.66
2023-04-12T10:55:38.184Z,25.68
2023-04-12T10:56:38.206Z,25.69
2023-04-12T10:57:38.244Z,25.70
2023-04-12T10:58:38.339Z,25.73
2023-04-12T10:59:47.333Z,25.75
2023-04-12T11:00:39.354Z,25.75
2023-04-12T11:01:39.152Z,25.79
2023-04-12T11:02:38.440Z,25.82
2023-04-12T11:03:38.404Z,25.85
2023-04-12T11:04:38.433Z,25.85
2023-04-12T11:05:38.321Z,25.83
2023-04-12T11:06:38.288Z,25.89
2023-04-12T11:07:38.277Z,25.87
2023-04-12T11:08:38.314Z,25.90
2023-04-12T11:09:38.287Z,25.89
2023-04-12T11:10:38.279Z,25.93
2023-04-12T11:11:38.277Z,25.90
2023-04-12T11:12:38.336Z,25.95
2023-04-12T11:13:38.392Z,25.95
2023-04-12T11:14:38.443Z,25.95
2023-04-12T11:15:38.519Z,25.96
2023-04-12T11:16:38.595Z,25.96
2023-04-12T11:17:38.646Z,25.97
2023-04-12T11:18:38.769Z,25.99
2023-04-12T11:19:38.751Z,25.97
2023-04-12T11:20:38.819Z,26.00
2023-04-12T11:21:38.915Z,25.99
2023-04-12T11:22:38.964Z,26.00
2023-04-12T11:23:38.989Z,26.03
2023-04-12T11:24:39.727Z,26.01
2023-04-12T11:25:39.173Z,26.01
2023-04-12T11:26:39.192Z,26.03
2023-04-12T11:27:39.210Z,26.03
2023-04-12T11:28:39.305Z,26.01
2023-04-12T11:29:39.317Z,26.04
2023-04-12T11:30:39.412Z,26.06
2023-04-12T11:31:39.536Z,26.08
2023-04-12T11:32:39.572Z,26.12
2023-04-12T11:33:39.538Z,26.12
2023-04-12T11:34:39.594Z,26.12
2023-04-12T11:35:39.647Z,26.14
2023-04-12T11:36:39.676Z,26.14
2023-04-12T11:37:39.706Z,26.17
2023-04-12T11:38:39.787Z,26.12
2023-04-12T11:39:39.830Z,26.14
2023-04-12T11:40:39.873Z,26.14
2023-04-12T11:41:39.900Z,26.13
2023-04-12T11:42:40.000Z,26.14
2023-04-12T11:43:40.057Z,26.16
2023-04-12T11:44:55.224Z,26.16
2023-04-12T11:45:41.107Z,26.16
2023-04-12T11:46:40.040Z,26.17
2023-04-12T11:47:40.136Z,26.19
2023-04-12T11:48:40.071Z,26.17
2023-04-12T11:49:40.059Z,26.21
2023-04-12T11:50:40.041Z,26.23
2023-04-12T11:51:40.054Z,26.24
2023-04-12T11:52:40.011Z,26.23
2023-04-12T11:53:40.046Z,26.26
2023-04-12T11:54:40.022Z,26.27
2023-04-12T11:55:40.068Z,26.27
2023-04-12T11:56:40.071Z,26.26
2023-04-12T11:57:40.168Z,26.27
2023-04-12T11:58:40.282Z,26.26
2023-04-12T11:59:40.233Z,26.30
2023-04-12T12:00:40.273Z,26.33
2023-04-12T12:01:40.337Z,26.31
2023-04-12T12:02:46.675Z,26.33
2023-04-12T12:03:41.557Z,26.30
2023-04-12T12:04:40.647Z,26.31
2023-04-12T12:05:40.513Z,26.31
2023-04-12T12:06:40.486Z,26.30
2023-04-12T12:07:40.350Z,26.30
2023-04-12T12:08:40.318Z,26.31
2023-04-12T12:09:40.332Z,26.34
2023-04-12T12:10:55.551Z,26.35
2023-04-12T12:11:41.298Z,26.38
2023-04-12T12:12:40.275Z,26.40
2023-04-12T12:13:41.818Z,26.41
2023-04-12T12:14:40.538Z,26.41
2023-04-12T12:15:40.600Z,26.45
2023-04-12T12:16:40.624Z,26.42
2023-04-12T12:17:40.651Z,26.40
2023-04-12T12:18:40.695Z,26.44
2023-04-12T12:19:40.707Z,26.45
2023-04-12T12:20:40.766Z,26.47
2023-04-12T12:21:40.785Z,26.52
2023-04-12T12:22:40.819Z,26.51
2023-04-12T12:23:40.868Z,26.51
2023-04-12T12:24:43.811Z,26.54
2023-04-12T12:25:40.884Z,26.55
2023-04-12T12:26:40.896Z,26.54
2023-04-12T12:27:40.927Z,26.55
2023-04-12T12:28:40.854Z,26.55
2023-04-12T12:29:40.863Z,26.56
2023-04-12T12:30:40.847Z,26.58
2023-04-12T12:31:43.263Z,26.59
2023-04-12T12:32:40.914Z,26.59
2023-04-12T12:33:46.835Z,26.58
2023-04-12T12:34:41.920Z,26.56
2023-04-12T12:35:40.944Z,26.59
2023-04-12T12:36:40.880Z,26.58
2023-04-12T12:37:40.882Z,26.58
2023-04-12T12:38:40.890Z,26.54
2023-04-12T12:39:40.874Z,26.51
2023-04-12T12:40:40.856Z,26.52
2023-04-12T12:41:40.937Z,26.52
2023-04-12T12:42:40.861Z,26.50
2023-04-12T12:43:40.863Z,26.47
2023-04-12T12:44:40.836Z,26.47
2023-04-12T12:45:40.836Z,26.47
2023-04-12T12:46:53.386Z,26.47
2023-04-12T12:47:41.905Z,26.44
2023-04-12T12:48:40.815Z,26.47
2023-04-12T12:49:40.825Z,26.50
2023-04-12T12:50:40.808Z,26.54
2023-04-12T12:51:40.794Z,26.55
2023-04-12T12:52:40.794Z,26.52